Time;durP1;ratioP1;P1;durP2;ratioP2;P2;SDS_P1;SDS_P2;PMS_P1;PMS_P2;Temp;Humidity;BMP_temperature;BMP_pressure;BME280_temperature;BME280_humidity;BME280_pressure;Samples;Min_cycle;Max_cycle;Signal;HPM_P1;HPM_P2
2021/12/24 00:00:22;;;;;;;0.30;0.30;;;;;;;-0.72;69.90;95862.53;5132274;27;20509;-52
2021/12/24 00:02:53;;;;;;;0.20;0.20;;;;;;;-1.98;70.46;95669.03;5132842;27;20957;-52
2021/12/24 00:05:24;;;;;;;1.70;0.97;;;;;;;-0.82;71.67;95859.41;5132491;27;20426;-52
2021/12/24 00:07:53;;;;;;;0.53;0.53;;;;;;;-1.57;71.22;95758.41;5132713;27;20516;-52
2021/12/24 00:10:21;;;;;;;13.73;1.03;;;;;;;-0.91;72.07;95857.94;5132368;28;20443;-52
2021/12/24 00:12:58;;;;;;;0.40;0.40;;;;;;;-1.12;73.09;95858.72;5132345;28;20434;-52
2021/12/24 00:15:52;;;;;;;1.37;1.37;;;;;;;-0.67;70.47;95854.97;5132143;28;20468;-52
2021/12/24 00:18:31;;;;;;;1.93;1.93;;;;;;;-0.88;71.77;95862.75;5132714;28;20950;-52
2021/12/24 00:37:41;;;;;;;0.20;0.20;;;;;;;-1.26;75.38;95858.75;5132417;28;20458;-52
2021/12/24 00:40:18;;;;;;;0.30;0.20;;;;;;;-1.32;74.27;95855.88;5132301;27;20514;-52
2021/12/24 00:42:48;;;;;;;2.10;1.23;;;;;;;-1.65;78.13;95864.28;5132519;27;20426;-52
2021/12/24 00:45:20;;;;;;;0.37;0.37;;;;;;;-1.46;76.25;95854.13;5132044;27;20922;-52
2021/12/24 00:47:49;;;;;;;1.23;1.23;;;;;;;-1.18;74.54;95863.84;5132849;28;20809;-52
2021/12/24 00:50:22;;;;;;;0.20;0.20;;;;;;;-1.58;77.71;95865.97;5131734;28;20895;-52
2021/12/24 00:52:57;;;;;;;0.20;0.20;;;;;;;-2.17;77.57;95766.47;5132432;28;20480;-52
2021/12/24 00:55:28;;;;;;;0.20;0.20;;;;;;;-1.41;76.02;95867.38;5132155;28;20466;-52
2021/12/24 00:57:58;;;;;;;0.30;0.20;;;;;;;-1.34;76.13;95863.06;5132444;28;20954;-52
2021/12/24 01:00:29;;;;;;;0.20;0.20;;;;;;;-1.29;75.82;95862.53;5132164;28;20519;-52
2021/12/24 01:03:00;;;;;;;0.20;0.20;;;;;;;-1.31;74.75;95854.91;5132033;28;20484;-52
2021/12/24 01:05:30;;;;;;;0.20;0.10;;;;;;;-1.75;74.55;95775.41;5132401;27;20421;-52
2021/12/24 01:08:01;;;;;;;0.20;0.20;;;;;;;-1.21;74.38;95846.00;5132346;27;20469;-52
2021/12/24 01:10:32;;;;;;;0.20;0.20;;;;;;;-1.20;74.08;95845.00;5131625;28;20459;-52
2021/12/24 01:13:01;;;;;;;0.20;0.20;;;;;;;-1.11;72.51;95847.31;5132525;28;20473;-52
2021/12/24 01:15:32;;;;;;;0.20;0.20;;;;;;;-1.75;73.86;95755.44;5134696;27;20454;-52
2021/12/24 01:18:07;;;;;;;0.50;0.50;;;;;;;-1.52;74.48;95813.25;5134632;27;20486;-52
2021/12/24 01:20:43;;;;;;;0.30;0.20;;;;;;;-1.25;74.21;95818.75;5134994;27;20464;-52
2021/12/24 01:23:34;;;;;;;0.50;0.50;;;;;;;-2.19;74.13;95694.94;5135850;27;20514;-52
2021/12/24 01:26:06;;;;;;;0.20;0.20;;;;;;;-1.44;75.52;95820.94;5135745;27;20522;-52
2021/12/24 01:39:55;;;;;;;0.40;0.40;;;;;;;-1.71;76.46;95829.41;5135499;27;20435;-52
2021/12/24 01:42:44;;;;;;;0.20;0.20;;;;;;;-1.53;75.86;95816.03;5135396;27;20454;-52
2021/12/24 01:45:21;;;;;;;0.90;0.90;;;;;;;-2.08;77.38;95749.03;5134457;27;20494;-52
2021/12/24 01:47:51;;;;;;;2.20;2.10;;;;;;;-1.64;78.58;95803.50;5135284;27;20513;-52
2021/12/24 01:50:21;;;;;;;0.93;0.67;;;;;;;-1.60;77.93;95799.56;5135227;27;20463;-52
2021/12/24 01:52:51;;;;;;;1.50;0.50;;;;;;;-1.47;77.12;95795.31;5135227;27;20427;-52
2021/12/24 01:55:21;;;;;;;0.40;0.40;;;;;;;-1.79;79.44;95790.53;5134648;27;20462;-52
2021/12/24 01:57:49;;;;;;;0.40;0.40;;;;;;;-1.63;78.12;95787.75;5135331;27;20858;-52
2021/12/24 02:00:21;;;;;;;0.20;0.10;;;;;;;-2.16;77.37;95704.97;5134794;27;20504;-52
2021/12/24 02:02:50;;;;;;;2.10;1.73;;;;;;;-3.15;76.83;95573.16;5134583;27;20890;-52
2021/12/24 02:05:19;;;;;;;0.20;0.20;;;;;;;-1.65;76.73;95779.34;5135374;27;20492;-52
2021/12/24 02:07:48;;;;;;;0.40;0.40;;;;;;;-1.59;76.16;95772.56;5135241;27;20484;-52
2021/12/24 02:10:19;;;;;;;0.30;0.30;;;;;;;-1.62;74.60;95776.34;5135001;27;20461;-51
2021/12/24 02:12:50;;;;;;;1.17;1.17;;;;;;;-1.52;75.03;95766.47;5134847;27;20776;-51
2021/12/24 02:15:28;;;;;;;1.70;1.60;;;;;;;-1.48;74.08;95764.31;5135004;27;20796;-51
2021/12/24 02:29:07;;;;;;;0.20;0.20;;;;;;;-1.54;74.96;95778.03;5134452;27;20458;-51
2021/12/24 02:31:35;;;;;;;0.53;0.53;;;;;;;-1.69;75.21;95787.66;5134132;27;20446;-51
2021/12/24 02:34:04;;;;;;;0.30;0.30;;;;;;;-2.24;81.21;95770.78;5134702;27;20811;-51
2021/12/24 02:36:34;;;;;;;0.53;0.53;;;;;;;-2.26;83.00;95777.94;5134775;27;20513;-51
2021/12/24 02:39:05;;;;;;;0.30;0.20;;;;;;;-2.16;82.67;95777.69;5134484;27;20468;-51
2021/12/24 02:41:33;;;;;;;0.97;0.97;;;;;;;-2.95;88.77;95763.53;5134116;27;20427;-51
2021/12/24 02:44:02;;;;;;;3.83;2.33;;;;;;;-2.90;89.42;95771.59;5134625;27;20832;-51
2021/12/24 02:46:37;;;;;;;0.80;0.80;;;;;;;-2.88;92.38;95774.81;5133758;27;20776;-51
2021/12/24 02:49:11;;;;;;;0.63;0.63;;;;;;;-2.91;90.68;95772.56;5134068;27;20483;-51
2021/12/24 02:54:27;;;;;;;0.30;0.20;;;;;;;-3.25;91.50;95647.78;5134044;27;20532;-51
2021/12/24 02:57:06;;;;;;;0.67;0.67;;;;;;;-2.20;86.49;95779.03;5133471;27;20827;-51
2021/12/24 02:59:37;;;;;;;2.20;2.10;;;;;;;-2.39;87.11;95784.72;5133154;27;20468;-50
2021/12/24 03:02:05;;;;;;;3.90;3.03;;;;;;;-2.96;89.43;95725.59;5133746;27;20965;-50
2021/12/24 03:04:34;;;;;;;0.60;0.60;;;;;;;-2.59;89.65;95774.88;5134162;27;20626;-50
2021/12/24 03:07:04;;;;;;;0.53;0.53;;;;;;;-2.57;91.09;95759.94;5133832;27;20514;-50
2021/12/24 03:09:32;;;;;;;0.40;0.40;;;;;;;-2.53;89.91;95763.00;5133677;27;20488;-50
2021/12/24 03:12:01;;;;;;;0.20;0.20;;;;;;;-2.45;89.42;95762.88;5133589;27;20456;-51
2021/12/24 03:14:29;;;;;;;0.20;0.20;;;;;;;-3.01;93.64;95737.50;5133798;27;20518;-50
2021/12/24 03:17:00;;;;;;;0.60;0.60;;;;;;;-2.82;92.60;95748.19;5133897;27;20509;-50
2021/12/24 03:19:32;;;;;;;0.20;0.20;;;;;;;-2.89;91.99;95729.13;5133597;27;20470;-50
2021/12/24 03:22:12;;;;;;;1.40;1.40;;;;;;;-2.69;90.88;95734.59;5132651;27;20514;-50
2021/12/24 03:24:42;;;;;;;0.20;0.20;;;;;;;-3.00;89.55;95654.34;5133418;27;20501;-50
2021/12/24 03:27:12;;;;;;;0.30;0.30;;;;;;;-2.38;88.36;95742.22;5132729;27;21037;-50
2021/12/24 03:29:41;;;;;;;2.93;2.73;;;;;;;-2.95;91.87;95745.38;5133674;27;20858;-51
2021/12/24 03:32:10;;;;;;;0.30;0.30;;;;;;;-3.00;95.21;95739.91;5133440;27;20418;-50
2021/12/24 03:34:38;;;;;;;2.40;1.23;;;;;;;-3.39;94.12;95649.34;5133546;27;20521;-51
2021/12/24 03:37:07;;;;;;;0.47;0.47;;;;;;;-2.42;89.47;95736.59;5132496;27;20431;-51
2021/12/24 03:39:35;;;;;;;0.20;0.17;;;;;;;-2.33;87.21;95738.13;5132225;27;20458;-51
2021/12/24 03:42:07;;;;;;;11.33;2.63;;;;;;;-2.91;86.89;95647.31;5132691;27;20430;-52
2021/12/24 03:44:40;;;;;;;0.20;0.20;;;;;;;-2.50;87.06;95717.72;5133184;27;20973;-52
2021/12/24 03:47:11;;;;;;;0.70;0.70;;;;;;;-2.33;86.55;95748.50;5132882;27;20513;-52
2021/12/24 03:49:52;;;;;;;1.03;1.03;;;;;;;-2.64;88.48;95701.97;5132302;27;20427;-51
2021/12/24 03:52:38;;;;;;;0.57;0.57;;;;;;;-2.53;87.69;95741.41;5133229;27;20454;-51
2021/12/24 03:55:06;;;;;;;0.43;0.43;;;;;;;-2.41;85.77;95745.19;5132972;27;20466;-50
2021/12/24 03:57:38;;;;;;;1.00;1.00;;;;;;;-2.92;91.28;95739.03;5133013;27;20430;-49
2021/12/24 04:00:11;;;;;;;0.30;0.20;;;;;;;-3.11;94.65;95735.13;5132348;27;20481;-50
2021/12/24 04:02:39;;;;;;;0.47;0.47;;;;;;;-3.41;93.15;95632.38;5132753;27;20427;-50
2021/12/24 04:05:09;;;;;;;0.20;0.20;;;;;;;-2.67;91.25;95746.41;5132755;27;20462;-50
2021/12/24 04:07:37;;;;;;;1.10;1.03;;;;;;;-3.32;91.51;95668.44;5132742;27;20411;-50
2021/12/24 04:10:16;;;;;;;0.20;0.20;;;;;;;-2.72;92.47;95756.50;5132788;28;20430;-50
2021/12/24 04:12:46;;;;;;;0.43;0.43;;;;;;;-2.79;92.76;95747.84;5132731;28;20434;-50
2021/12/24 04:15:14;;;;;;;0.20;0.17;;;;;;;-2.80;94.95;95748.00;5132623;28;20966;-50
2021/12/24 04:17:44;;;;;;;0.40;0.40;;;;;;;-2.13;88.51;95738.38;5132471;28;20514;-50
2021/12/24 04:25:45;;;;;;;0.20;0.17;;;;;;;-1.67;79.46;95726.72;5132531;28;20512;-51
2021/12/24 04:28:15;;;;;;;0.63;0.63;;;;;;;-1.55;78.24;95727.88;5132567;28;20451;-51
2021/12/24 04:30:47;;;;;;;0.20;0.10;;;;;;;-1.91;80.25;95714.06;5132270;28;20566;-51
2021/12/24 04:33:22;;;;;;;0.30;0.20;;;;;;;-1.41;77.57;95718.38;5132381;28;20510;-51
2021/12/24 04:35:59;;;;;;;0.20;0.20;;;;;;;-1.62;77.26;95724.38;5132426;28;20963;-50
2021/12/24 04:38:57;;;;;;;0.20;0.20;;;;;;;-1.05;74.57;95724.31;5132389;28;20473;-50
2021/12/24 04:52:54;;;;;;;0.20;0.20;;;;;;;-1.43;74.77;95721.19;5136617;27;20517;-51
2021/12/24 05:01:26;;;;;;;1.70;1.23;;;;;;;-2.29;83.15;95735.97;5136149;27;20508;-50
2021/12/24 05:03:56;;;;;;;0.20;0.20;;;;;;;-2.11;83.79;95731.19;5136202;27;20415;-51
2021/12/24 05:06:33;;;;;;;0.30;0.30;;;;;;;-1.94;82.85;95743.81;5135644;27;20492;-51
2021/12/24 05:09:08;;;;;;;0.80;0.80;;;;;;;-2.29;82.58;95710.00;5136269;27;20449;-51
2021/12/24 05:11:36;;;;;;;2.50;2.40;;;;;;;-2.16;84.32;95730.94;5135965;27;20509;-51
2021/12/24 05:14:06;;;;;;;2.00;1.90;;;;;;;-2.22;84.66;95736.84;5136226;27;20454;-51
2021/12/24 05:16:44;;;;;;;0.20;0.20;;;;;;;-2.91;87.40;95681.78;5136087;27;20433;-51
2021/12/24 05:22:15;;;;;;;0.30;0.20;;;;;;;-2.41;87.93;95725.22;5072088;28;20479;-50
2021/12/24 05:24:43;;;;;;;1.27;1.27;;;;;;;-2.29;86.33;95728.97;5072350;28;20436;-51
2021/12/24 05:27:12;;;;;;;0.30;0.30;;;;;;;-2.27;86.42;95732.19;5101209;27;20560;-51
2021/12/24 05:29:40;;;;;;;4.90;3.83;;;;;;;-2.28;84.69;95722.00;5135293;27;20526;-51
2021/12/24 05:32:10;;;;;;;0.20;0.20;;;;;;;-2.37;87.49;95734.25;5135850;27;20431;-50
2021/12/24 05:34:39;;;;;;;0.30;0.30;;;;;;;-2.50;86.92;95717.72;5135861;27;20859;-50
2021/12/24 05:37:07;;;;;;;1.63;1.37;;;;;;;-2.60;87.10;95711.00;5133845;27;20426;-51
2021/12/24 05:39:36;;;;;;;0.70;0.70;;;;;;;-2.20;85.77;95714.91;5135496;27;20953;-51
2021/12/24 05:42:06;;;;;;;0.20;0.20;;;;;;;-2.66;83.21;95620.09;5135586;27;20526;-51
2021/12/24 05:44:34;;;;;;;1.03;1.03;;;;;;;-2.21;83.35;95715.09;5135265;27;20430;-51
2021/12/24 05:47:03;;;;;;;2.60;2.50;;;;;;;-2.70;88.91;95718.22;5135331;27;20557;-52
2021/12/24 05:49:34;;;;;;;0.53;0.53;;;;;;;-2.59;88.72;95699.63;5135426;27;20522;-51
2021/12/24 05:52:03;;;;;;;1.17;1.17;;;;;;;-2.62;87.82;95722.53;5135165;27;20443;-51
2021/12/24 05:54:31;;;;;;;0.60;0.60;;;;;;;-2.74;90.33;95736.91;5135156;27;20517;-51
2021/12/24 05:57:00;;;;;;;0.30;0.20;;;;;;;-2.49;88.64;95737.47;5134957;27;20419;-52
2021/12/24 05:59:28;;;;;;;0.97;0.97;;;;;;;-2.81;89.45;95734.22;5135055;27;20451;-51
2021/12/24 06:01:56;;;;;;;1.17;1.17;;;;;;;-3.86;87.51;95538.25;5134351;27;20457;-50
2021/12/24 06:04:25;;;;;;;0.30;0.23;;;;;;;-2.78;87.44;95733.88;5134442;27;20462;-51
2021/12/24 06:06:55;;;;;;;0.30;0.20;;;;;;;-2.83;87.74;95741.38;5135112;27;21015;-52
2021/12/24 06:09:23;;;;;;;0.70;0.70;;;;;;;-2.67;87.83;95745.59;5134716;27;20811;-49
2021/12/24 06:11:52;;;;;;;0.40;0.30;;;;;;;-2.49;86.22;95742.66;5134773;27;20454;-51
2021/12/24 06:14:20;;;;;;;0.40;0.40;;;;;;;-2.77;88.23;95743.28;5134678;27;20521;-51
2021/12/24 06:16:57;;;;;;;0.40;0.40;;;;;;;-2.80;89.39;95742.81;5135002;27;20469;-51
2021/12/24 06:19:26;;;;;;;0.37;0.37;;;;;;;-2.61;89.42;95719.75;5133553;27;20841;-52
2021/12/24 06:21:57;;;;;;;3.27;3.17;;;;;;;-2.05;85.57;95730.50;5135017;27;20450;-51
2021/12/24 06:24:26;;;;;;;0.20;0.20;;;;;;;-1.58;80.82;95723.03;5134443;27;20517;-52
2021/12/24 06:26:54;;;;;;;0.50;0.50;;;;;;;-1.27;78.23;95727.13;5134697;27;20605;-52
2021/12/24 06:29:23;;;;;;;0.93;0.93;;;;;;;-1.37;79.35;95725.63;5134430;27;20850;-52
2021/12/24 06:31:52;;;;;;;1.70;1.70;;;;;;;-1.44;76.36;95692.75;5134473;27;20954;-53
2021/12/24 06:34:21;;;;;;;0.97;0.97;;;;;;;-1.51;77.35;95728.28;5134344;27;20484;-52
2021/12/24 06:36:51;;;;;;;2.90;2.80;;;;;;;-1.65;78.94;95735.16;5134382;27;20455;-53
2021/12/24 06:39:21;;;;;;;0.60;0.60;;;;;;;-1.76;78.63;95727.81;5134082;27;20513;-52
2021/12/24 06:41:50;;;;;;;2.60;2.53;;;;;;;-1.44;76.62;95744.75;5134477;27;20461;-51
2021/12/24 06:44:20;;;;;;;2.03;1.97;;;;;;;-1.53;77.19;95738.06;5134331;27;20426;-52
2021/12/24 06:46:49;;;;;;;5.30;4.97;;;;;;;-1.26;76.53;95697.53;5134101;27;20493;-53
2021/12/24 06:49:18;;;;;;;6.43;6.03;;;;;;;-0.85;72.26;95747.91;5134475;27;20422;-52
2021/12/24 06:51:46;;;;;;;0.40;0.40;;;;;;;-0.82;70.27;95685.88;5134016;27;20830;-52
2021/12/24 06:54:15;;;;;;;0.27;0.23;;;;;;;0.19;68.02;95744.31;5134252;27;20510;-52
2021/12/24 06:56:46;;;;;;;0.27;0.27;;;;;;;0.65;61.89;95740.06;5133831;27;20433;-52
2021/12/24 06:59:15;;;;;;;1.13;1.10;;;;;;;0.72;61.44;95751.31;5133660;27;20482;-53
2021/12/24 07:01:43;;;;;;;0.20;0.20;;;;;;;0.82;59.32;95698.75;5133635;27;20498;-53
2021/12/24 07:04:12;;;;;;;0.77;0.77;;;;;;;0.62;60.42;95732.63;5133210;27;20466;-52
2021/12/24 07:06:45;;;;;;;2.77;2.63;;;;;;;0.52;61.74;95729.59;5133832;27;20508;-54
2021/12/24 07:09:14;;;;;;;0.30;0.20;;;;;;;0.25;62.71;95720.09;5134202;27;20427;-53
2021/12/24 07:11:43;;;;;;;0.70;0.70;;;;;;;0.36;62.97;95698.66;5132908;27;20480;-53
2021/12/24 07:14:13;;;;;;;0.50;0.50;;;;;;;-0.70;61.40;95503.97;5133415;27;20454;-53
2021/12/24 07:16:47;;;;;;;0.73;0.73;;;;;;;0.24;62.40;95702.84;5133690;27;20761;-54
2021/12/24 07:19:15;;;;;;;0.20;0.20;;;;;;;0.22;63.24;95690.03;5133562;27;20793;-53
2021/12/24 07:21:44;;;;;;;0.60;0.60;;;;;;;-0.31;66.87;95693.41;5133300;27;20422;-54
2021/12/24 07:24:12;;;;;;;4.20;1.17;;;;;;;-0.60;70.26;95699.63;5133285;27;20469;-52
2021/12/24 07:26:41;;;;;;;0.70;0.70;;;;;;;-0.35;71.09;95697.38;5133135;27;20501;-53
2021/12/24 07:29:09;;;;;;;2.20;2.10;;;;;;;-0.50;72.70;95705.31;5133321;27;20473;-53
2021/12/24 07:31:39;;;;;;;1.90;1.03;;;;;;;0.82;65.13;95707.38;5133482;27;20419;-54
2021/12/24 07:34:07;;;;;;;1.03;1.03;;;;;;;0.03;59.70;95502.34;5133414;27;20837;-51
2021/12/24 07:36:36;;;;;;;0.80;0.80;;;;;;;1.94;58.14;95684.56;5133108;27;20940;-53
2021/12/24 07:39:05;;;;;;;1.07;1.07;;;;;;;2.49;54.65;95680.47;5133136;27;20923;-53
2021/12/24 07:41:33;;;;;;;2.53;2.43;;;;;;;1.47;56.57;95670.00;5133119;27;20430;-53
2021/12/24 07:44:02;;;;;;;0.30;0.30;;;;;;;2.24;55.03;95677.81;5133403;27;20513;-53
2021/12/24 07:46:37;;;;;;;1.60;0.50;;;;;;;1.96;55.36;95679.13;5132812;27;20483;-52
2021/12/24 07:49:19;;;;;;;1.03;1.03;;;;;;;1.42;56.49;95718.66;5133354;27;20457;-53
2021/12/24 07:52:02;;;;;;;0.30;0.30;;;;;;;1.50;57.90;95710.59;5132868;27;20455;-55
2021/12/24 07:54:31;;;;;;;0.30;0.23;;;;;;;1.34;58.49;95717.06;5132824;27;20473;-52
2021/12/24 07:57:01;;;;;;;0.63;0.57;;;;;;;1.42;59.10;95721.28;5132754;27;20898;-53
2021/12/24 07:59:38;;;;;;;0.33;0.30;;;;;;;1.53;57.84;95712.78;5132938;27;20448;-52
2021/12/24 08:02:14;;;;;;;0.20;0.20;;;;;;;2.52;57.54;95699.19;5132523;27;20852;-53
2021/12/24 08:04:45;;;;;;;1.50;1.40;;;;;;;2.77;51.86;95612.06;5133178;27;20411;-52
2021/12/24 08:07:14;;;;;;;1.43;1.43;;;;;;;2.73;50.69;95678.94;5132635;27;20506;-52
2021/12/24 08:09:43;;;;;;;0.30;0.30;;;;;;;2.94;51.00;95689.84;5132694;27;20462;-51
2021/12/24 08:12:12;;;;;;;0.40;0.40;;;;;;;4.67;47.49;95675.53;5132423;28;20450;-52
2021/12/24 08:14:41;;;;;;;0.80;0.80;;;;;;;5.04;46.46;95669.91;5132617;28;20517;-52
2021/12/24 08:17:12;;;;;;;0.80;0.80;;;;;;;4.62;47.27;95657.00;5132685;28;20525;-52
2021/12/24 08:19:40;;;;;;;0.87;0.87;;;;;;;3.98;47.98;95661.06;5131853;28;20457;-51
2021/12/24 08:22:11;;;;;;;2.00;2.00;;;;;;;3.71;48.35;95667.63;5132445;28;20478;-51
2021/12/24 08:24:41;;;;;;;2.90;2.70;;;;;;;3.11;49.29;95658.72;5135533;27;20503;-51
2021/12/24 08:27:09;;;;;;;8.30;4.20;;;;;;;3.45;49.55;95655.56;5137020;27;20500;-51
2021/12/24 08:29:38;;;;;;;4.07;3.90;;;;;;;3.56;48.73;95673.22;5136660;27;20521;-51
2021/12/24 08:32:07;;;;;;;0.60;0.60;;;;;;;4.46;47.23;95667.13;5136688;27;20448;-50
2021/12/24 08:34:36;;;;;;;11.43;2.27;;;;;;;4.95;46.11;95652.88;5136569;27;20426;-50
2021/12/24 08:37:05;;;;;;;2.03;1.93;;;;;;;5.34;45.42;95659.31;5136440;27;20458;-50
2021/12/24 08:39:34;;;;;;;2.00;1.90;;;;;;;5.50;45.01;95657.84;5136569;27;20430;-50
2021/12/24 08:42:03;;;;;;;2.43;2.30;;;;;;;5.42;44.65;95658.16;5136756;27;20454;-50
2021/12/24 08:44:32;;;;;;;0.83;0.83;;;;;;;5.40;44.87;95632.13;5136547;27;20501;-50
2021/12/24 08:47:03;;;;;;;4.27;1.60;;;;;;;5.87;43.31;95640.78;5136117;27;20518;-50
2021/12/24 08:49:32;;;;;;;2.80;1.70;;;;;;;6.44;42.54;95646.94;5136728;27;20415;-49
2021/12/24 08:52:01;;;;;;;0.93;0.93;;;;;;;5.73;44.65;95645.47;5136714;27;20866;-50
2021/12/24 08:54:29;;;;;;;1.53;1.43;;;;;;;6.03;43.25;95634.00;5136186;27;20480;-50
2021/12/24 08:56:59;;;;;;;0.30;0.30;;;;;;;6.78;42.26;95619.63;5136170;27;20430;-50
2021/12/24 08:59:27;;;;;;;1.10;1.07;;;;;;;6.66;41.16;95602.28;5136030;27;20451;-50
2021/12/24 09:01:58;;;;;;;0.80;0.80;;;;;;;7.36;40.94;95602.63;5136048;27;20510;-50
2021/12/24 09:04:26;;;;;;;0.87;0.87;;;;;;;7.71;40.70;95597.84;5135999;27;20529;-50
2021/12/24 09:06:55;;;;;;;0.80;0.80;;;;;;;7.97;39.78;95601.59;5136352;27;20427;-51
2021/12/24 09:09:23;;;;;;;5.80;1.27;;;;;;;7.61;40.49;95593.19;5136286;27;20457;-51
2021/12/24 09:11:52;;;;;;;7.60;0.97;;;;;;;8.42;39.00;95596.06;5136276;27;20501;-52
2021/12/24 09:14:22;;;;;;;2.10;1.90;;;;;;;8.10;38.48;95590.66;5135902;27;20452;-53
2021/12/24 09:16:50;;;;;;;3.90;3.80;;;;;;;6.97;41.24;95591.22;5135703;27;20507;-54
2021/12/24 09:19:23;;;;;;;0.80;0.80;;;;;;;8.99;37.63;95561.94;5135830;27;20434;-55
2021/12/24 09:21:55;;;;;;;2.10;2.00;;;;;;;10.89;34.67;95552.44;5135755;27;20469;-55
2021/12/24 09:24:25;;;;;;;0.70;0.70;;;;;;;10.95;34.54;95544.22;5135683;27;20797;-56
2021/12/24 09:26:57;;;;;;;0.60;0.60;;;;;;;10.77;34.55;95548.19;5135744;27;20484;-56
2021/12/24 09:29:27;;;;;;;11.00;1.40;;;;;;;10.77;33.77;95571.25;5135460;27;20503;-56
2021/12/24 09:31:56;;;;;;;2.20;2.10;;;;;;;10.93;33.96;95556.16;5135768;27;20419;-56
2021/12/24 09:34:25;;;;;;;2.17;2.07;;;;;;;9.81;33.91;95519.84;5135582;27;20422;-56
2021/12/24 09:36:54;;;;;;;1.80;1.70;;;;;;;10.46;33.90;95553.72;5134920;27;20561;-56
2021/12/24 09:39:22;;;;;;;1.60;1.50;;;;;;;11.15;32.55;95490.34;5135665;27;20426;-56
2021/12/24 09:41:51;;;;;;;0.60;0.47;;;;;;;12.03;31.92;95516.13;5135321;27;20427;-55
2021/12/24 09:44:19;;;;;;;1.90;1.90;;;;;;;11.91;31.25;95517.50;5135322;27;20468;-55
2021/12/24 09:46:49;;;;;;;1.73;1.30;;;;;;;11.79;31.33;95495.78;5135021;27;20431;-54
2021/12/24 09:49:17;;;;;;;2.20;1.70;;;;;;;11.55;31.67;95484.94;5134616;27;20498;-56
2021/12/24 09:51:50;;;;;;;0.80;0.80;;;;;;;11.94;31.44;95474.47;5135101;27;20423;-54
2021/12/24 09:54:21;;;;;;;2.60;1.67;;;;;;;11.87;31.60;95472.09;5135118;27;21073;-53
2021/12/24 09:56:51;;;;;;;1.87;1.77;;;;;;;10.52;32.25;95410.38;5135309;27;20497;-53
2021/12/24 09:59:19;;;;;;;2.53;2.43;;;;;;;11.35;31.84;95466.44;5134988;27;20444;-53
2021/12/24 10:01:55;;;;;;;2.07;1.90;;;;;;;11.45;32.36;95471.72;5134818;27;20557;-53
2021/12/24 10:04:26;;;;;;;1.67;1.57;;;;;;;13.28;30.98;95476.38;5134037;27;20418;-52
2021/12/24 10:06:59;;;;;;;2.10;2.00;;;;;;;11.60;33.05;95471.66;5135227;27;20422;-52
2021/12/24 10:09:32;;;;;;;2.23;1.13;;;;;;;12.25;31.79;95457.25;5134886;27;20494;-52
2021/12/24 10:12:02;;;;;;;1.73;0.80;;;;;;;12.32;31.34;95463.06;5134757;27;20423;-52
2021/12/24 10:14:38;;;;;;;1.37;1.30;;;;;;;13.03;30.10;95452.66;5134793;27;20430;-52
2021/12/24 10:17:16;;;;;;;3.80;2.20;;;;;;;11.66;31.45;95445.88;5135048;27;20481;-52
2021/12/24 10:19:46;;;;;;;4.63;3.07;;;;;;;11.42;31.44;95445.69;5134644;27;20498;-53
2021/12/24 10:22:15;;;;;;;14.40;4.37;;;;;;;11.37;31.85;95459.78;5135026;27;20558;-52
2021/12/24 10:24:57;;;;;;;41.50;5.93;;;;;;;13.00;31.90;95441.78;5134763;27;20898;-52
2021/12/24 10:27:28;;;;;;;3.30;3.10;;;;;;;12.25;30.87;95446.63;5134779;27;20422;-52
2021/12/24 10:29:57;;;;;;;15.70;9.37;;;;;;;12.37;31.03;95441.00;5134177;27;20553;-53
2021/12/24 10:32:27;;;;;;;21.53;5.73;;;;;;;13.11;30.46;95429.97;5134262;27;20491;-52
2021/12/24 10:34:55;;;;;;;7.50;4.77;;;;;;;14.19;29.26;95415.88;5134603;27;20450;-52
2021/12/24 10:37:27;;;;;;;6.10;1.60;;;;;;;14.10;29.16;95404.25;5134596;27;20509;-52
2021/12/24 10:39:57;;;;;;;1.27;1.17;;;;;;;13.70;29.29;95417.06;5134040;27;20458;-52
2021/12/24 10:42:31;;;;;;;1.20;1.10;;;;;;;14.63;28.05;95400.25;5133551;27;20503;-51
2021/12/24 10:45:02;;;;;;;1.67;1.57;;;;;;;14.22;28.34;95415.31;5134390;27;20430;-52
2021/12/24 10:47:41;;;;;;;1.37;1.27;;;;;;;13.85;28.86;95403.53;5134363;27;20406;-52
2021/12/24 10:50:26;;;;;;;1.10;1.00;;;;;;;14.18;28.92;95393.75;5134111;27;20563;-52
2021/12/24 10:53:11;;;;;;;3.70;3.40;;;;;;;14.90;27.94;95392.31;5133700;27;20423;-52
2021/12/24 10:55:45;;;;;;;7.60;0.97;;;;;;;14.84;27.44;95377.50;5134280;27;20495;-52
2021/12/24 10:58:19;;;;;;;3.90;0.87;;;;;;;15.29;28.69;95378.53;5133863;27;20505;-52
2021/12/24 11:00:51;;;;;;;1.57;1.47;;;;;;;14.40;28.05;95377.97;5133678;27;20470;-52
2021/12/24 11:03:24;;;;;;;1.20;1.10;;;;;;;14.36;28.77;95386.84;5133708;27;20427;-52
2021/12/24 11:05:54;;;;;;;1.70;1.33;;;;;;;14.45;29.65;95375.22;5133481;27;20793;-52
2021/12/24 11:08:24;;;;;;;6.53;2.30;;;;;;;14.30;28.24;95361.31;5133390;27;21068;-52
2021/12/24 11:10:55;;;;;;;2.47;2.30;;;;;;;13.46;29.04;95375.56;5133098;27;20434;-52
2021/12/24 11:13:29;;;;;;;5.57;2.97;;;;;;;13.20;30.01;95367.09;5133881;27;20414;-52
2021/12/24 11:15:59;;;;;;;0.70;0.70;;;;;;;15.22;27.84;95360.25;5133430;27;20513;-51
2021/12/24 11:18:31;;;;;;;3.23;1.83;;;;;;;15.14;27.07;95360.13;5133241;27;20850;-52
2021/12/24 11:21:03;;;;;;;1.77;1.70;;;;;;;15.07;27.75;95357.88;5132997;27;20465;-52
2021/12/24 11:23:32;;;;;;;0.80;0.50;;;;;;;15.40;27.15;95313.16;5133662;27;20536;-53
2021/12/24 11:26:03;;;;;;;1.00;1.00;;;;;;;16.12;26.48;95348.72;5133640;27;20858;-53
2021/12/24 11:28:34;;;;;;;1.80;1.70;;;;;;;16.57;25.00;95316.66;5133114;27;20558;-52
2021/12/24 11:31:04;;;;;;;2.40;2.10;;;;;;;16.10;26.33;95340.22;5133470;27;20427;-54
2021/12/24 11:33:36;;;;;;;1.60;1.50;;;;;;;16.83;24.81;95337.09;5133530;27;20442;-53
2021/12/24 11:36:07;;;;;;;0.97;0.97;;;;;;;16.88;25.06;95333.47;5133141;27;20477;-53
2021/12/24 11:38:39;;;;;;;1.27;1.17;;;;;;;17.70;24.20;95323.69;5133134;27;20446;-52
2021/12/24 11:41:12;;;;;;;6.47;2.13;;;;;;;16.76;24.78;95319.88;5133078;27;20426;-52
2021/12/24 11:43:42;;;;;;;0.73;0.73;;;;;;;17.19;24.57;95314.69;5133068;27;20436;-53
2021/12/24 11:46:15;;;;;;;3.97;3.70;;;;;;;14.17;27.36;95343.38;5132988;27;20522;-53
2021/12/24 11:48:48;;;;;;;0.87;0.87;;;;;;;13.30;28.64;95333.16;5133263;27;20466;-53
2021/12/24 11:51:18;;;;;;;2.50;1.27;;;;;;;14.84;27.05;95321.47;5132661;27;20469;-52
2021/12/24 11:53:47;;;;;;;1.53;1.43;;;;;;;16.86;24.76;95309.69;5132627;27;20435;-52
2021/12/24 11:56:22;;;;;;;1.43;0.50;;;;;;;16.80;24.22;95294.09;5132610;27;20525;-52
2021/12/24 11:58:53;;;;;;;0.50;0.40;;;;;;;15.87;24.38;95277.13;5132513;27;20419;-52
2021/12/24 12:01:24;;;;;;;0.53;0.53;;;;;;;16.18;24.81;95282.53;5132613;27;20488;-52
2021/12/24 12:03:56;;;;;;;1.10;0.67;;;;;;;16.24;24.28;95284.78;5132599;27;20423;-52
2021/12/24 12:06:34;;;;;;;6.10;1.23;;;;;;;16.24;24.93;95278.66;5132921;27;20469;-52
2021/12/24 12:09:07;;;;;;;2.80;1.10;;;;;;;16.56;24.38;95285.63;5132636;27;20530;-52
2021/12/24 12:11:39;;;;;;;0.90;0.90;;;;;;;17.43;23.50;95288.31;5132921;27;20426;-52
2021/12/24 12:14:23;;;;;;;2.60;0.97;;;;;;;17.05;24.03;95274.66;5132645;28;20471;-52
2021/12/24 12:16:54;;;;;;;1.10;0.53;;;;;;;16.39;23.96;95280.94;5132605;28;20462;-52
2021/12/24 12:19:28;;;;;;;1.17;0.93;;;;;;;15.65;24.90;95279.78;5132987;28;20458;-52
2021/12/24 12:22:18;;;;;;;1.00;1.00;;;;;;;15.07;25.27;95279.66;5132488;28;20454;-52
2021/12/24 12:27:33;;;;;;;1.37;1.27;;;;;;;15.63;25.30;95298.78;5132923;27;20774;-52
2021/12/24 12:30:24;;;;;;;9.40;1.00;;;;;;;16.42;23.88;95242.84;5132472;27;20547;-52
2021/12/24 12:32:54;;;;;;;0.90;0.83;;;;;;;17.33;23.97;95292.03;5132546;27;21001;-52
2021/12/24 12:35:35;;;;;;;0.80;0.77;;;;;;;16.60;24.40;95299.94;5132764;27;20463;-52
2021/12/24 12:38:22;;;;;;;7.20;0.80;;;;;;;16.07;25.08;95299.91;5132557;27;20513;-52
2021/12/24 12:40:51;;;;;;;0.43;0.43;;;;;;;16.28;24.43;95288.44;5132333;28;20427;-52
2021/12/24 12:43:20;;;;;;;2.20;1.40;;;;;;;15.96;25.32;95303.94;5132503;28;20461;-52
2021/12/24 12:46:01;;;;;;;0.87;0.87;;;;;;;16.39;24.69;95287.06;5131857;28;20759;-52
2021/12/24 12:48:51;;;;;;;1.23;1.23;;;;;;;16.85;24.72;95264.53;5132320;28;20426;-53
2021/12/24 12:51:42;;;;;;;3.07;2.97;;;;;;;16.50;24.59;95293.75;5132137;28;20452;-53
2021/12/24 12:54:37;;;;;;;2.30;1.80;;;;;;;16.97;24.25;95281.56;5132253;28;20513;-51
2021/12/24 12:57:17;;;;;;;0.60;0.60;;;;;;;17.62;23.23;95280.78;5112670;28;20855;-51
2021/12/24 13:00:19;;;;;;;1.93;1.83;;;;;;;16.77;24.74;95274.09;5131033;28;20485;-51
2021/12/24 13:03:09;;;;;;;3.20;2.90;;;;;;;14.40;26.79;95303.31;5132137;28;20426;-51
2021/12/24 13:05:59;;;;;;;2.03;1.30;;;;;;;15.37;26.33;95289.69;5132096;27;20978;-51